createdAt,value
2023-03-28T00:01:11.682Z,28.00
2023-03-28T00:03:40.567Z,28.00
2023-03-28T00:06:12.989Z,28.00
2023-03-28T00:08:41.532Z,28.00
2023-03-28T00:11:12.970Z,28.00
2023-03-28T00:13:41.056Z,27.90
2023-03-28T00:16:13.244Z,27.90
2023-03-28T00:18:43.003Z,27.90
2023-03-28T00:21:27.541Z,28.00
2023-03-28T00:23:57.640Z,28.00
2023-03-28T00:26:27.924Z,28.00
2023-03-28T00:28:57.653Z,28.10
2023-03-28T00:31:30.225Z,28.10
2023-03-28T00:33:58.388Z,28.10
2023-03-28T00:36:29.860Z,28.10
2023-03-28T00:38:58.638Z,28.10
2023-03-28T00:41:32.156Z,28.10
2023-03-28T00:44:04.824Z,28.10
2023-03-28T00:46:40.656Z,28.10
2023-03-28T00:49:16.037Z,28.10
2023-03-28T00:52:02.024Z,28.20
2023-03-28T00:54:40.986Z,28.20
2023-03-28T00:57:11.507Z,28.30
2023-03-28T00:59:41.359Z,28.30
2023-03-28T01:02:09.566Z,28.30
2023-03-28T01:04:50.542Z,28.40
2023-03-28T01:07:19.134Z,28.40
2023-03-28T01:10:00.236Z,28.40
2023-03-28T01:12:28.309Z,28.50
2023-03-28T01:14:56.725Z,28.60
2023-03-28T01:17:28.994Z,28.60
2023-03-28T01:20:07.568Z,28.70
2023-03-28T01:22:59.050Z,28.70
2023-03-28T01:25:52.862Z,28.70
2023-03-28T01:31:43.158Z,28.80
2023-03-28T01:34:17.182Z,28.90
2023-03-28T01:36:54.356Z,28.90
2023-03-28T01:39:29.147Z,28.90
2023-03-28T01:42:11.804Z,29.00
2023-03-28T01:45:23.043Z,29.10
2023-03-28T01:48:24.074Z,29.20
2023-03-28T01:52:15.504Z,29.30
2023-03-28T01:55:10.583Z,29.30
2023-03-28T01:57:49.447Z,29.40
2023-03-28T02:00:35.055Z,29.40
2023-03-28T02:03:25.463Z,29.50
2023-03-28T02:05:57.245Z,29.50
2023-03-28T02:08:30.376Z,29.60
2023-03-28T02:11:00.508Z,29.60
2023-03-28T02:16:14.650Z,29.70
2023-03-28T02:18:49.803Z,29.70
2023-03-28T02:21:43.827Z,29.70
2023-03-28T02:24:15.011Z,29.80
2023-03-28T02:26:43.901Z,29.70
2023-03-28T02:29:17.244Z,29.70
2023-03-28T02:31:46.722Z,29.70
2023-03-28T02:34:15.007Z,29.70
2023-03-28T02:36:54.253Z,29.70
2023-03-28T02:40:02.402Z,29.70
2023-03-28T02:43:24.084Z,29.80
2023-03-28T02:46:21.895Z,29.80
2023-03-28T02:48:59.329Z,29.80
2023-03-28T02:51:37.177Z,29.90
2023-03-28T02:54:23.741Z,29.90
2023-03-28T02:57:18.628Z,30.00
2023-03-28T03:03:39.138Z,30.10
2023-03-28T03:06:08.061Z,30.00
2023-03-28T03:08:36.478Z,30.00
2023-03-28T03:11:07.625Z,30.10
2023-03-28T03:13:36.000Z,30.10
2023-03-28T03:16:05.605Z,30.10
2023-03-28T03:18:36.177Z,30.10
2023-03-28T03:21:04.586Z,30.30
2023-03-28T03:23:32.616Z,30.30
2023-03-28T03:26:01.266Z,30.40
2023-03-28T03:28:30.375Z,30.40
2023-03-28T03:30:59.167Z,30.40
2023-03-28T03:33:27.550Z,30.40
2023-03-28T03:35:55.909Z,30.50
2023-03-28T03:38:24.001Z,30.50
2023-03-28T03:40:52.047Z,30.60
2023-03-28T03:43:20.261Z,30.70
2023-03-28T03:45:48.615Z,30.80
2023-03-28T03:48:16.690Z,30.80
2023-03-28T03:50:44.701Z,30.90
2023-03-28T03:53:12.965Z,30.90
2023-03-28T03:55:41.940Z,31.00
2023-03-28T03:58:12.859Z,31.10
2023-03-28T04:00:43.486Z,31.10
2023-03-28T04:03:24.263Z,31.20
2023-03-28T04:05:55.514Z,31.30
2023-03-28T04:08:26.320Z,31.40
2023-03-28T04:10:54.436Z,31.40
2023-03-28T04:13:22.475Z,31.50
2023-03-28T04:15:50.665Z,31.50
2023-03-28T04:18:20.803Z,31.60
2023-03-28T04:20:57.295Z,31.70
2023-03-28T04:23:26.213Z,31.70
2023-03-28T04:25:57.665Z,31.70
2023-03-28T04:28:27.956Z,31.80
2023-03-28T04:31:00.910Z,31.80
2023-03-28T04:33:30.938Z,32.00
2023-03-28T04:36:02.499Z,32.00
2023-03-28T04:38:37.288Z,32.00
2023-03-28T04:41:08.886Z,32.00
2023-03-28T04:43:39.328Z,32.00
2023-03-28T04:46:07.660Z,32.10
2023-03-28T04:48:35.854Z,32.20
2023-03-28T04:51:04.974Z,32.30
2023-03-28T04:53:33.160Z,32.40
2023-03-28T04:56:02.357Z,32.40
2023-03-28T04:58:30.611Z,32.50
2023-03-28T05:01:03.862Z,32.50
2023-03-28T05:03:37.200Z,32.60
2023-03-28T05:06:12.573Z,32.60
2023-03-28T05:09:27.032Z,32.70
2023-03-28T05:11:58.632Z,32.80
2023-03-28T05:14:32.526Z,32.90
2023-03-28T05:17:17.946Z,32.90
2023-03-28T05:19:46.127Z,33.00
2023-03-28T05:22:14.774Z,33.10
2023-03-28T05:24:50.792Z,33.10
2023-03-28T05:27:18.975Z,33.00
2023-03-28T05:30:22.765Z,33.20
2023-03-28T05:32:50.825Z,33.20
2023-03-28T05:35:19.096Z,33.40
2023-03-28T05:37:50.360Z,33.40
2023-03-28T05:40:18.603Z,33.50
2023-03-28T05:42:47.209Z,33.50
2023-03-28T05:47:57.734Z,33.60
2023-03-28T05:50:29.958Z,33.50
2023-03-28T05:53:01.116Z,33.60
2023-03-28T05:55:41.345Z,33.40
2023-03-28T05:58:09.946Z,33.50
2023-03-28T06:03:08.101Z,33.50
2023-03-28T06:05:37.490Z,33.60
2023-03-28T06:08:06.476Z,33.60
2023-03-28T06:10:34.796Z,33.70
2023-03-28T06:13:05.202Z,33.70
2023-03-28T06:15:34.663Z,33.70
2023-03-28T06:18:03.690Z,33.80
2023-03-28T06:20:32.000Z,33.80
2023-03-28T06:23:00.521Z,33.90
2023-03-28T06:25:30.992Z,33.90
2023-03-28T06:28:02.653Z,34.00
2023-03-28T06:30:32.865Z,33.90
2023-03-28T06:33:03.504Z,34.00
2023-03-28T06:35:34.487Z,33.90
2023-03-28T06:38:03.699Z,33.90
2023-03-28T06:40:32.789Z,33.90
2023-03-28T06:43:01.114Z,33.90
2023-03-28T06:45:29.357Z,33.90
2023-03-28T06:47:59.825Z,34.00
2023-03-28T06:50:28.155Z,34.10
2023-03-28T06:52:57.282Z,34.30
2023-03-28T06:55:26.132Z,34.30
2023-03-28T06:58:01.104Z,34.40
2023-03-28T07:00:29.295Z,34.50
2023-03-28T07:02:58.611Z,34.50
2023-03-28T07:05:27.576Z,34.50
2023-03-28T07:07:56.141Z,34.50
2023-03-28T07:10:24.581Z,34.50
2023-03-28T07:12:56.828Z,34.50
2023-03-28T07:15:27.309Z,34.60
2023-03-28T07:17:58.205Z,34.50
2023-03-28T07:20:30.693Z,34.60
2023-03-28T07:22:59.168Z,34.60
2023-03-28T07:25:27.378Z,34.70
2023-03-28T07:27:55.678Z,34.70
2023-03-28T07:30:24.771Z,34.70
2023-03-28T07:33:01.785Z,34.80
2023-03-28T07:35:45.161Z,34.80
2023-03-28T07:38:14.384Z,34.80
2023-03-28T07:40:44.464Z,34.80
2023-03-28T07:43:13.135Z,34.80
2023-03-28T07:45:45.076Z,34.90
2023-03-28T07:48:15.297Z,34.80
2023-03-28T07:50:45.116Z,34.90
2023-03-28T07:55:59.081Z,34.90
2023-03-28T07:58:29.194Z,34.90
2023-03-28T08:00:57.424Z,34.90
2023-03-28T08:03:25.989Z,34.90
2023-03-28T08:05:54.660Z,34.90
2023-03-28T08:08:22.779Z,34.90
2023-03-28T08:10:53.397Z,34.90
2023-03-28T08:13:24.437Z,34.90
2023-03-28T08:15:58.213Z,34.80
2023-03-28T08:18:26.943Z,34.80
2023-03-28T08:21:03.729Z,34.70
2023-03-28T08:23:32.360Z,34.70
2023-03-28T08:26:10.368Z,34.70
2023-03-28T08:28:39.585Z,34.70
2023-03-28T08:31:17.303Z,34.70
2023-03-28T08:33:48.839Z,34.70
2023-03-28T08:36:16.928Z,34.80
2023-03-28T08:38:47.413Z,34.70
2023-03-28T08:41:48.365Z,34.70
2023-03-28T08:44:34.589Z,34.70
2023-03-28T08:47:09.750Z,34.70
2023-03-28T08:49:56.904Z,34.60
2023-03-28T08:53:08.807Z,34.50
2023-03-28T08:55:43.533Z,34.40
2023-03-28T08:58:27.277Z,34.40
2023-03-28T09:00:55.457Z,34.30
2023-03-28T09:03:25.911Z,34.20
2023-03-28T09:06:05.143Z,34.10
2023-03-28T09:09:11.814Z,34.10
2023-03-28T09:12:12.082Z,34.00
2023-03-28T09:15:07.460Z,33.90
2023-03-28T09:17:46.095Z,33.90
2023-03-28T09:20:59.292Z,33.90
2023-03-28T09:24:05.857Z,33.90
2023-03-28T09:27:02.385Z,33.80
2023-03-28T09:29:33.358Z,33.80
2023-03-28T09:32:05.370Z,33.80
2023-03-28T09:34:46.834Z,33.70
2023-03-28T09:37:34.565Z,33.80
2023-03-28T09:40:15.543Z,33.70
2023-03-28T09:42:56.274Z,33.70
2023-03-28T09:45:42.603Z,33.60
2023-03-28T09:48:33.868Z,33.70
2023-03-28T09:51:03.673Z,33.60
2023-03-28T09:53:38.072Z,33.70
2023-03-28T09:56:34.814Z,33.70
2023-03-28T09:59:05.674Z,33.60
2023-03-28T10:01:48.927Z,33.70
2023-03-28T10:04:40.710Z,33.70
2023-03-28T10:07:11.877Z,33.60
2023-03-28T10:09:50.908Z,33.70
2023-03-28T10:12:40.105Z,33.60
2023-03-28T10:15:28.433Z,33.70
2023-03-28T10:17:58.119Z,33.60
2023-03-28T10:20:26.163Z,33.50
2023-03-28T10:22:56.487Z,33.40
2023-03-28T10:25:46.175Z,33.30
2023-03-28T10:28:37.064Z,33.10
2023-03-28T10:31:07.880Z,32.90
2023-03-28T10:33:41.657Z,32.80
2023-03-28T10:36:13.181Z,32.70
2023-03-28T10:38:44.591Z,32.70
2023-03-28T10:41:33.714Z,32.60
2023-03-28T10:44:27.260Z,32.60
2023-03-28T10:46:57.817Z,32.50
2023-03-28T10:49:28.901Z,32.40
2023-03-28T10:51:57.053Z,32.50
2023-03-28T10:54:31.702Z,32.40
2023-03-28T10:57:12.823Z,32.40
2023-03-28T10:59:51.672Z,32.30
2023-03-28T11:02:27.539Z,32.20
2023-03-28T11:05:12.256Z,32.30
2023-03-28T11:07:58.504Z,32.20
2023-03-28T11:10:39.007Z,32.10
2023-03-28T11:13:41.165Z,32.10
2023-03-28T11:16:30.806Z,32.10
2023-03-28T11:19:19.967Z,32.10
2023-03-28T11:22:06.630Z,32.10
2023-03-28T11:24:44.176Z,32.10
2023-03-28T11:27:24.495Z,32.10
2023-03-28T11:30:11.575Z,32.10
2023-03-28T11:32:51.202Z,32.10
2023-03-28T11:35:34.410Z,32.10
2023-03-28T11:38:12.049Z,32.10
2023-03-28T11:41:04.289Z,32.10
2023-03-28T11:43:45.201Z,32.00
2023-03-28T11:46:17.741Z,32.00
2023-03-28T11:49:21.725Z,32.00
2023-03-28T11:52:13.581Z,31.90
2023-03-28T11:55:09.661Z,31.90
2023-03-28T11:57:59.805Z,31.90
2023-03-28T12:00:33.237Z,31.80
2023-03-28T12:03:23.837Z,31.80
2023-03-28T12:06:20.567Z,31.80
2023-03-28T12:09:06.885Z,31.80
2023-03-28T12:11:57.898Z,31.90
2023-03-28T12:14:44.496Z,31.90
2023-03-28T12:17:26.682Z,31.90
2023-03-28T12:19:55.059Z,32.00
2023-03-28T12:22:50.527Z,32.10
2023-03-28T12:25:41.426Z,32.10
2023-03-28T12:28:24.398Z,32.20
2023-03-28T12:31:16.752Z,32.20
2023-03-28T12:34:17.055Z,32.30
2023-03-28T12:37:12.518Z,32.30
2023-03-28T12:39:54.780Z,32.30
2023-03-28T12:42:26.646Z,32.30
2023-03-28T12:45:01.472Z,32.30
2023-03-28T12:47:37.068Z,32.30
2023-03-28T12:50:16.942Z,32.30
2023-03-28T12:52:46.979Z,32.30
2023-03-28T12:55:35.057Z,32.30
2023-03-28T12:58:34.428Z,32.30
2023-03-28T13:01:22.622Z,32.30
2023-03-28T13:04:22.920Z,32.30
2023-03-28T13:07:02.109Z,32.30
2023-03-28T13:09:52.160Z,32.20
2023-03-28T13:12:32.475Z,32.20
2023-03-28T13:15:15.891Z,32.20
2023-03-28T13:17:48.512Z,32.20
2023-03-28T13:20:16.712Z,32.20
2023-03-28T13:22:53.997Z,32.20
2023-03-28T13:25:35.431Z,32.20
2023-03-28T13:28:12.419Z,32.10
2023-03-28T13:30:47.710Z,32.10
2023-03-28T13:33:30.853Z,32.10
2023-03-28T13:35:58.921Z,32.10
2023-03-28T13:38:30.741Z,32.10
2023-03-28T13:41:07.305Z,32.00
2023-03-28T13:43:42.679Z,32.00
2023-03-28T13:46:23.013Z,32.00
2023-03-28T13:48:52.462Z,32.00
2023-03-28T13:51:26.533Z,32.00
2023-03-28T13:53:54.572Z,32.00
2023-03-28T13:56:31.846Z,32.00
2023-03-28T13:59:01.509Z,32.00
2023-03-28T14:01:46.343Z,32.00
2023-03-28T14:04:23.377Z,31.90
2023-03-28T14:06:53.836Z,31.90
2023-03-28T14:09:29.388Z,32.00
2023-03-28T14:12:14.546Z,31.90
2023-03-28T14:14:47.392Z,31.90
2023-03-28T14:17:22.776Z,31.90
2023-03-28T14:20:06.585Z,31.80
2023-03-28T14:22:52.715Z,31.90
2023-03-28T14:25:26.250Z,31.80
2023-03-28T14:27:56.547Z,31.80
2023-03-28T14:30:37.983Z,31.80
2023-03-28T14:33:20.596Z,31.80
2023-03-28T14:36:04.066Z,31.70
2023-03-28T14:38:38.543Z,31.60
2023-03-28T14:41:25.933Z,31.60
2023-03-28T14:43:57.123Z,31.50
2023-03-28T14:46:29.460Z,31.50
2023-03-28T14:49:00.155Z,31.40
2023-03-28T14:51:28.551Z,31.40
2023-03-28T14:53:57.193Z,31.40
2023-03-28T14:56:28.018Z,31.30
2023-03-28T14:59:00.686Z,31.30
2023-03-28T15:01:31.555Z,31.30
2023-03-28T15:04:06.102Z,31.40
2023-03-28T15:06:35.615Z,31.30
2023-03-28T15:09:31.673Z,31.30
2023-03-28T15:12:04.527Z,31.30
2023-03-28T15:14:40.416Z,31.30
2023-03-28T15:17:17.326Z,31.30
2023-03-28T15:19:47.132Z,31.30
2023-03-28T15:22:18.020Z,31.20
2023-03-28T15:24:46.647Z,31.20
2023-03-28T15:27:32.030Z,31.10
2023-03-28T15:30:07.029Z,30.70
2023-03-28T15:32:35.082Z,30.20
2023-03-28T15:35:20.634Z,29.70
2023-03-28T15:37:49.095Z,29.20
2023-03-28T15:40:20.046Z,28.70
2023-03-28T15:42:53.958Z,28.20
2023-03-28T15:45:22.674Z,27.80
2023-03-28T15:47:56.475Z,27.50
2023-03-28T15:50:38.643Z,27.10
2023-03-28T15:53:15.431Z,26.90
2023-03-28T15:55:45.106Z,26.60
2023-03-28T15:58:19.472Z,26.30
2023-03-28T16:00:53.130Z,26.10
2023-03-28T16:06:30.666Z,25.70
2023-03-28T16:36:47.949Z,25.90
2023-03-28T16:44:13.728Z,26.00
2023-03-28T16:46:41.858Z,26.00
2023-03-28T16:51:38.232Z,26.00
2023-03-28T16:54:06.689Z,25.90
2023-03-28T16:56:35.428Z,25.90
2023-03-28T16:59:08.048Z,25.90
2023-03-28T17:04:05.484Z,25.90
2023-03-28T17:09:04.780Z,25.80
2023-03-28T17:41:29.682Z,26.10
2023-03-28T17:56:24.753Z,26.40
2023-03-28T18:13:49.171Z,26.00
2023-03-28T18:23:45.591Z,26.20
2023-03-28T18:26:13.965Z,26.20
2023-03-28T18:28:41.993Z,26.10
2023-03-28T18:31:17.582Z,26.10
2023-03-28T18:33:46.294Z,26.10
2023-03-28T19:13:51.070Z,26.20
2023-03-28T19:16:22.244Z,26.30
2023-03-28T19:18:50.559Z,26.40
2023-03-28T19:21:19.385Z,26.30
2023-03-28T19:23:52.031Z,26.40
2023-03-28T19:26:20.176Z,26.40
2023-03-28T19:28:49.091Z,26.40
2023-03-28T19:31:18.094Z,26.40
2023-03-28T21:31:41.903Z,26.50
